Time;durP1;ratioP1;P1;durP2;ratioP2;P2;SDS_P1;SDS_P2;PMS_P1;PMS_P2;Temp;Humidity;BMP_temperature;BMP_pressure;BME280_temperature;BME280_humidity;BME280_pressure;Samples;Min_cycle;Max_cycle;Signal;HPM_P1;HPM_P2
2023/08/20 00:00:27;;;;;;;6.43;2.20;;;16.20;99.90;;;;;;4817844;29;20050;-84
2023/08/20 00:03:02;;;;;;;6.28;2.00;;;16.30;99.90;;;;;;4820144;29;20711;-85
2023/08/20 00:05:29;;;;;;;6.47;2.13;;;16.30;99.90;;;;;;4829000;29;20124;-84
2023/08/20 00:07:55;;;;;;;8.57;2.37;;;16.20;99.90;;;;;;4831103;29;20045;-84
2023/08/20 00:10:20;;;;;;;5.30;2.20;;;16.20;99.90;;;;;;4845598;29;20489;-84
2023/08/20 00:12:46;;;;;;;5.82;2.30;;;16.10;99.90;;;;;;4828944;29;20101;-84
2023/08/20 00:15:12;;;;;;;6.28;2.17;;;16.10;99.90;;;;;;4815899;29;20049;-85
2023/08/20 00:17:39;;;;;;;6.30;2.33;;;16.10;99.90;;;;;;4850713;29;20045;-83
2023/08/20 00:20:12;;;;;;;5.30;2.10;;;16.10;99.90;;;;;;4829384;29;20072;-83
2023/08/20 00:22:42;;;;;;;4.97;1.73;;;16.00;99.90;;;;;;4812454;29;20057;-85
2023/08/20 00:25:08;;;;;;;4.97;2.00;;;16.00;99.90;;;;;;4824896;29;20409;-85
2023/08/20 00:27:34;;;;;;;5.15;2.25;;;16.00;99.90;;;;;;4805222;29;20110;-86
2023/08/20 00:30:00;;;;;;;4.53;1.88;;;16.00;99.90;;;;;;4832812;29;20061;-85
2023/08/20 00:32:26;;;;;;;4.82;2.20;;;16.00;99.90;;;;;;4846895;29;20041;-84
2023/08/20 00:34:52;;;;;;;4.57;1.90;;;16.00;99.90;;;;;;4826033;29;20037;-86
2023/08/20 00:37:17;;;;;;;5.93;2.20;;;16.10;99.90;;;;;;4796942;29;20049;-86
2023/08/20 00:39:43;;;;;;;4.80;2.25;;;16.00;99.90;;;;;;4804509;29;20092;-84
2023/08/20 00:42:09;;;;;;;4.20;2.28;;;16.00;99.90;;;;;;4836620;29;20038;-83
2023/08/20 00:44:35;;;;;;;3.38;1.95;;;16.00;99.90;;;;;;4841491;29;20074;-82
2023/08/20 00:47:02;;;;;;;6.13;2.28;;;16.00;99.90;;;;;;4813167;29;20129;-84
2023/08/20 00:49:29;;;;;;;5.88;2.20;;;16.00;99.90;;;;;;4833990;29;20053;-86
2023/08/20 00:51:56;;;;;;;9.50;2.35;;;16.00;99.90;;;;;;4810820;29;20076;-87
2023/08/20 00:54:22;;;;;;;5.97;2.13;;;16.00;99.90;;;;;;4824149;29;20538;-83
2023/08/20 00:56:50;;;;;;;5.93;2.10;;;16.00;99.90;;;;;;4798303;29;20514;-84
2023/08/20 00:59:16;;;;;;;4.18;1.98;;;16.00;99.90;;;;;;4825166;29;20052;-85
2023/08/20 01:01:43;;;;;;;5.82;2.17;;;16.00;99.90;;;;;;4811508;29;20045;-83
2023/08/20 01:04:09;;;;;;;5.32;2.80;;;16.00;99.90;;;;;;4843584;29;20041;-85
2023/08/20 01:07:10;;;;;;;8.68;2.90;;;16.00;99.90;;;;;;4827773;29;20037;-83
2023/08/20 01:09:57;;;;;;;7.35;2.50;;;16.00;99.90;;;;;;4826852;29;20042;-83
2023/08/20 01:12:24;;;;;;;5.68;2.40;;;15.90;99.90;;;;;;4855543;29;20132;-85
2023/08/20 01:14:50;;;;;;;5.15;2.65;;;;;;;;;;4833339;29;20045;-84
2023/08/20 01:17:16;;;;;;;5.63;2.45;;;15.90;99.90;;;;;;4827372;29;20048;-83
2023/08/20 01:19:41;;;;;;;5.93;2.45;;;15.90;99.90;;;;;;4812381;29;20046;-82
2023/08/20 01:22:22;;;;;;;6.55;2.67;;;15.90;99.90;;;;;;4845822;29;20525;-83
2023/08/20 01:25:25;;;;;;;7.30;2.40;;;15.80;99.90;;;;;;4821070;29;20046;-84
2023/08/20 01:28:15;;;;;;;7.50;2.47;;;15.80;99.90;;;;;;4826234;29;20057;-82
2023/08/20 01:30:42;;;;;;;5.88;2.55;;;15.80;99.90;;;;;;4843221;29;20053;-82
2023/08/20 01:33:08;;;;;;;;;;;15.80;99.90;;;;;;4846045;29;20053;-84
2023/08/20 01:35:33;;;;;;;4.60;2.13;;;15.80;99.90;;;;;;4829725;29;19927;-82
2023/08/20 01:37:59;;;;;;;4.97;2.25;;;15.80;99.90;;;;;;4827259;29;20126;-82
2023/08/20 01:40:25;;;;;;;5.43;2.33;;;15.80;99.90;;;;;;4795347;29;20053;-85
2023/08/20 01:42:50;;;;;;;5.63;2.58;;;15.80;99.90;;;;;;4829161;29;20042;-83
2023/08/20 01:45:18;;;;;;;6.63;2.78;;;15.70;99.90;;;;;;4826223;29;20113;-84
2023/08/20 01:47:43;;;;;;;4.40;2.45;;;15.80;99.90;;;;;;4827619;29;20045;-82
2023/08/20 01:50:10;;;;;;;6.22;2.33;;;15.80;99.90;;;;;;4815708;29;20053;-84
2023/08/20 01:52:35;;;;;;;4.82;2.30;;;15.70;99.90;;;;;;4845703;29;20687;-83
2023/08/20 01:55:01;;;;;;;4.88;2.20;;;15.70;99.90;;;;;;4830709;29;20102;-84
2023/08/20 01:57:27;;;;;;;4.63;2.30;;;15.70;99.90;;;;;;4828723;29;20061;-85
2023/08/20 01:59:53;;;;;;;5.53;2.20;;;15.70;99.90;;;;;;4830959;29;20084;-85
2023/08/20 02:02:18;;;;;;;6.47;3.50;;;15.70;99.90;;;;;;4831531;29;20076;-85
2023/08/20 02:04:44;;;;;;;5.15;2.45;;;15.60;99.90;;;;;;4831203;29;20589;-85
2023/08/20 02:07:10;;;;;;;7.80;2.75;;;15.70;99.90;;;;;;4821865;29;20105;-85
2023/08/20 02:09:35;;;;;;;7.03;2.90;;;15.70;99.90;;;;;;4830594;29;20501;-86
2023/08/20 02:12:01;;;;;;;4.80;2.45;;;15.60;99.90;;;;;;4846847;29;20041;-87
2023/08/20 02:14:28;;;;;;;4.22;2.38;;;15.60;99.90;;;;;;4800664;29;20148;-87
2023/08/20 02:16:54;;;;;;;;;;;15.60;99.90;;;;;;4832247;29;20073;-87
2023/08/20 02:19:20;;;;;;;7.43;2.65;;;15.60;99.90;;;;;;4819307;29;20697;-87
2023/08/20 02:21:45;;;;;;;6.18;2.30;;;15.60;99.90;;;;;;4832692;29;20553;-86
2023/08/20 02:24:11;;;;;;;6.22;2.20;;;15.60;99.90;;;;;;4831457;29;20076;-87
2023/08/20 02:26:37;;;;;;;4.50;2.50;;;15.50;99.90;;;;;;4834801;29;20089;-87
2023/08/20 02:29:03;;;;;;;4.72;2.55;;;15.60;99.90;;;;;;4805179;29;20038;-84
2023/08/20 02:31:28;;;;;;;7.18;3.03;;;15.60;99.90;;;;;;4800278;29;20071;-84
2023/08/20 02:33:54;;;;;;;4.05;2.70;;;15.60;99.90;;;;;;4816094;29;20041;-85
2023/08/20 02:36:20;;;;;;;6.00;2.90;;;15.50;99.90;;;;;;4845831;29;20052;-87
2023/08/20 02:38:46;;;;;;;8.88;3.08;;;15.50;99.90;;;;;;4846447;29;20049;-87
2023/08/20 02:41:12;;;;;;;7.68;3.42;;;15.50;99.90;;;;;;4802030;29;20500;-89
2023/08/20 02:43:38;;;;;;;6.47;3.28;;;15.50;99.90;;;;;;4815503;29;20045;-89
2023/08/20 02:46:03;;;;;;;6.07;3.63;;;15.50;99.90;;;;;;4846500;29;20599;-86
2023/08/20 02:48:30;;;;;;;8.48;4.00;;;15.50;99.90;;;;;;4814132;29;20051;-84
2023/08/20 02:50:56;;;;;;;6.60;3.58;;;15.50;99.90;;;;;;4830912;29;20077;-84
2023/08/20 02:53:22;;;;;;;6.05;3.30;;;15.50;99.90;;;;;;4833199;29;20061;-85
2023/08/20 02:55:48;;;;;;;7.25;3.30;;;15.50;99.90;;;;;;4829392;29;20053;-84
2023/08/20 02:58:14;;;;;;;5.38;3.00;;;15.50;99.90;;;;;;4816960;29;20045;-89
2023/08/20 03:00:40;;;;;;;6.80;3.40;;;15.50;99.90;;;;;;4847398;29;20042;-83
2023/08/20 03:03:08;;;;;;;5.53;3.47;;;15.60;99.90;;;;;;4828969;29;20046;-86
2023/08/20 03:05:34;;;;;;;5.05;3.35;;;15.60;99.90;;;;;;4828808;29;20051;-87
2023/08/20 03:08:00;;;;;;;7.70;3.63;;;15.60;99.90;;;;;;4801469;29;20045;-85
2023/08/20 03:10:27;;;;;;;5.35;3.20;;;15.60;99.90;;;;;;4837380;29;20041;-83
2023/08/20 03:12:53;;;;;;;6.50;3.28;;;15.60;99.90;;;;;;4830608;29;20117;-83
2023/08/20 03:15:19;;;;;;;7.43;3.50;;;15.60;99.90;;;;;;4818666;29;20639;-84
2023/08/20 03:17:44;;;;;;;7.82;3.63;;;15.70;99.90;;;;;;4796850;29;20337;-84
2023/08/20 03:20:11;;;;;;;5.25;3.40;;;15.60;99.90;;;;;;4806024;29;20041;-84
2023/08/20 03:22:38;;;;;;;7.60;3.80;;;15.60;99.90;;;;;;4811570;29;20041;-85
2023/08/20 03:25:04;;;;;;;8.55;3.95;;;15.60;99.90;;;;;;4810823;29;20098;-84
2023/08/20 03:27:30;;;;;;;7.55;3.60;;;15.60;99.90;;;;;;4843556;29;20057;-83
2023/08/20 03:29:56;;;;;;;6.75;3.70;;;15.50;99.90;;;;;;4860837;29;20159;-83
2023/08/20 03:32:22;;;;;;;6.53;3.75;;;15.50;99.90;;;;;;4845398;29;20173;-83
2023/08/20 03:34:48;;;;;;;6.30;3.72;;;15.50;99.90;;;;;;4834734;29;20096;-82
2023/08/20 03:37:14;;;;;;;6.65;3.70;;;15.50;99.90;;;;;;4855795;29;20550;-83
2023/08/20 03:39:39;;;;;;;6.80;3.38;;;15.50;99.90;;;;;;4851771;29;20047;-85
2023/08/20 03:42:05;;;;;;;6.10;4.18;;;15.50;99.90;;;;;;4836828;29;20037;-83
2023/08/20 03:44:31;;;;;;;6.45;3.58;;;15.50;99.90;;;;;;4852419;29;20041;-83
2023/08/20 03:46:57;;;;;;;8.55;4.07;;;15.50;99.90;;;;;;4844092;29;20120;-84
2023/08/20 03:49:23;;;;;;;9.60;4.40;;;15.50;99.90;;;;;;4835391;29;20549;-83
2023/08/20 03:51:49;;;;;;;6.95;4.05;;;15.50;99.90;;;;;;4830039;29;20034;-84
2023/08/20 03:54:14;;;;;;;6.75;4.05;;;15.50;99.90;;;;;;4811742;29;20110;-84
2023/08/20 03:56:40;;;;;;;6.53;3.72;;;15.50;99.90;;;;;;4833167;29;20131;-82
2023/08/20 03:59:06;;;;;;;6.35;3.58;;;15.50;99.90;;;;;;4835426;29;20114;-85
2023/08/20 04:01:32;;;;;;;7.88;4.30;;;15.50;99.90;;;;;;4843583;29;20037;-83
2023/08/20 04:03:58;;;;;;;9.35;4.00;;;15.50;99.90;;;;;;4835080;29;20041;-85
2023/08/20 04:06:23;;;;;;;8.75;3.63;;;15.50;99.90;;;;;;4841532;29;20069;-83
2023/08/20 04:08:49;;;;;;;5.95;4.28;;;15.40;99.90;;;;;;4828320;29;20111;-84
2023/08/20 04:11:15;;;;;;;8.55;3.70;;;15.40;99.90;;;;;;4829432;29;20553;-84
2023/08/20 04:13:43;;;;;;;6.93;3.80;;;15.40;99.90;;;;;;4829452;29;20528;-86
2023/08/20 04:16:09;;;;;;;5.15;3.55;;;15.40;99.90;;;;;;4828105;29;20065;-85
2023/08/20 04:18:35;;;;;;;8.23;3.72;;;15.40;99.90;;;;;;4828827;29;20124;-86
2023/08/20 04:21:01;;;;;;;7.47;3.67;;;15.40;99.90;;;;;;4820719;29;20124;-85
2023/08/20 04:23:26;;;;;;;8.48;3.95;;;15.40;99.90;;;;;;4828747;29;20037;-86
2023/08/20 04:25:52;;;;;;;5.93;3.60;;;15.40;99.90;;;;;;4796227;29;20129;-83
2023/08/20 04:28:18;;;;;;;5.43;3.45;;;15.40;99.90;;;;;;4828564;29;20049;-85
2023/08/20 04:30:43;;;;;;;6.55;3.60;;;15.30;99.90;;;;;;4811068;29;20042;-84
2023/08/20 04:33:10;;;;;;;8.07;4.05;;;15.40;99.90;;;;;;4829127;29;20405;-85
2023/08/20 04:35:35;;;;;;;7.47;4.10;;;15.40;99.90;;;;;;4811207;29;20092;-84
2023/08/20 04:38:02;;;;;;;7.72;3.85;;;15.30;99.90;;;;;;4835284;29;20413;-85
2023/08/20 04:40:28;;;;;;;11.20;4.10;;;15.40;99.90;;;;;;4829379;29;20048;-84
2023/08/20 04:42:54;;;;;;;6.65;3.75;;;15.40;99.90;;;;;;4835459;29;20037;-85
2023/08/20 04:45:19;;;;;;;6.25;4.03;;;15.40;99.90;;;;;;4857466;29;20049;-85
2023/08/20 04:47:46;;;;;;;8.13;4.18;;;15.40;99.90;;;;;;4835625;29;20053;-85
2023/08/20 04:50:13;;;;;;;7.55;3.85;;;15.40;99.90;;;;;;4827619;29;20052;-85
2023/08/20 04:52:39;;;;;;;7.82;3.80;;;15.40;99.90;;;;;;4838094;29;20147;-86
2023/08/20 04:55:06;;;;;;;6.53;3.80;;;15.50;99.90;;;;;;4835734;29;20132;-86
2023/08/20 04:57:32;;;;;;;5.75;3.35;;;15.60;99.90;;;;;;4820672;29;20168;-85
2023/08/20 04:59:57;;;;;;;6.93;3.50;;;15.50;99.90;;;;;;4832470;29;20117;-84
2023/08/20 05:02:23;;;;;;;5.32;3.15;;;15.60;99.90;;;;;;4834578;29;20401;-84
2023/08/20 05:04:49;;;;;;;6.47;3.42;;;15.60;99.90;;;;;;4825957;29;20481;-85
2023/08/20 05:07:15;;;;;;;4.82;3.10;;;15.70;99.90;;;;;;4833748;29;20050;-84
2023/08/20 05:09:41;;;;;;;7.28;3.13;;;15.70;99.90;;;;;;4837705;29;20053;-84
2023/08/20 05:12:07;;;;;;;7.15;3.20;;;15.90;99.90;;;;;;4813969;29;20509;-85
2023/08/20 05:14:33;;;;;;;5.88;3.08;;;16.00;99.90;;;;;;4813392;29;20072;-85
2023/08/20 05:16:59;;;;;;;6.88;2.40;;;16.00;99.90;;;;;;4850280;29;20049;-85
2023/08/20 05:19:25;;;;;;;5.03;2.75;;;16.10;99.90;;;;;;4842631;29;20090;-85
2023/08/20 05:21:52;;;;;;;6.30;2.70;;;16.20;99.90;;;;;;4854275;29;20482;-85
2023/08/20 05:24:18;;;;;;;4.72;2.17;;;16.30;99.90;;;;;;4847437;29;20060;-86
2023/08/20 05:26:44;;;;;;;6.32;2.30;;;16.50;99.90;;;;;;4849279;29;20034;-84
2023/08/20 05:29:09;;;;;;;3.75;2.38;;;16.60;99.90;;;;;;4852007;29;20073;-86
2023/08/20 05:31:35;;;;;;;5.28;2.25;;;16.90;99.90;;;;;;4800591;29;20050;-84
2023/08/20 05:34:01;;;;;;;4.85;2.17;;;17.10;99.90;;;;;;4815422;29;20493;-85
2023/08/20 05:36:26;;;;;;;8.13;3.10;;;17.20;99.90;;;;;;4803963;29;20060;-86
2023/08/20 05:38:52;;;;;;;5.35;2.35;;;17.30;99.90;;;;;;4849380;29;20129;-86
2023/08/20 05:41:18;;;;;;;7.70;2.78;;;17.40;99.90;;;;;;4850248;29;20048;-85
2023/08/20 05:43:43;;;;;;;4.30;2.20;;;17.60;99.90;;;;;;4834234;29;20046;-86
2023/08/20 05:46:09;;;;;;;4.70;2.28;;;17.80;99.90;;;;;;4818878;29;20041;-84
2023/08/20 05:48:35;;;;;;;6.50;2.50;;;17.90;99.90;;;;;;4847165;29;20060;-87
2023/08/20 05:51:00;;;;;;;6.35;2.28;;;18.00;99.90;;;;;;4830646;29;20057;-87
2023/08/20 05:53:26;;;;;;;5.72;2.45;;;18.10;99.90;;;;;;4832563;29;20045;-86
2023/08/20 05:55:52;;;;;;;4.50;2.03;;;18.30;99.90;;;;;;4823079;29;20132;-86
2023/08/20 05:58:18;;;;;;;4.57;1.98;;;18.50;99.90;;;;;;4840784;29;20101;-86
2023/08/20 06:00:43;;;;;;;5.95;2.20;;;18.70;99.90;;;;;;4830617;29;20181;-83
2023/08/20 06:03:09;;;;;;;5.03;1.98;;;19.30;99.90;;;;;;4832057;29;20133;-87
2023/08/20 06:05:35;;;;;;;5.07;1.92;;;19.70;99.90;;;;;;4811396;29;20044;-86
2023/08/20 06:08:00;;;;;;;5.63;2.10;;;19.80;99.90;;;;;;4833185;29;20078;-85
2023/08/20 06:10:26;;;;;;;4.00;1.67;;;19.90;99.90;;;;;;4845793;29;20611;-86
2023/08/20 06:12:52;;;;;;;4.20;1.80;;;20.00;99.90;;;;;;4793117;29;20098;-87
2023/08/20 06:15:18;;;;;;;4.87;1.97;;;20.10;99.90;;;;;;4818936;29;20137;-86
2023/08/20 06:17:46;;;;;;;4.65;1.63;;;21.30;99.90;;;;;;4833494;29;20140;-84
2023/08/20 06:20:11;;;;;;;4.35;1.58;;;21.30;99.90;;;;;;4832456;29;20478;-89
2023/08/20 06:22:40;;;;;;;3.15;1.20;;;22.30;99.90;;;;;;4833417;29;20120;-87
2023/08/20 06:25:09;;;;;;;5.90;1.60;;;23.00;99.90;;;;;;4834033;29;20552;-84
2023/08/20 06:27:35;;;;;;;2.92;1.45;;;23.80;99.90;;;;;;4846594;29;20044;-84
2023/08/20 06:30:00;;;;;;;5.47;1.57;;;24.70;99.90;;;;;;4811685;29;20048;-85
2023/08/20 06:32:26;;;;;;;4.00;1.40;;;25.40;99.90;;;;;;4824934;29;20520;-87
2023/08/20 06:34:52;;;;;;;4.23;1.33;;;25.80;99.90;;;;;;4802215;29;20069;-84
2023/08/20 06:37:17;;;;;;;5.43;1.60;;;25.40;99.90;;;;;;4833057;29;20221;-86
2023/08/20 06:39:43;;;;;;;4.17;1.40;;;25.10;99.90;;;;;;4852250;29;20088;-90
2023/08/20 06:42:09;;;;;;;5.17;1.40;;;25.00;99.90;;;;;;4842168;29;20044;-88
2023/08/20 06:44:35;;;;;;;6.27;1.43;;;25.10;99.90;;;;;;4838934;29;20048;-85
2023/08/20 06:47:01;;;;;;;;;;;25.40;99.90;;;;;;4832826;29;20039;-87
2023/08/20 06:49:27;;;;;;;5.07;1.58;;;25.20;99.90;;;;;;4819460;29;19920;-84
2023/08/20 06:51:52;;;;;;;5.90;1.83;;;25.90;99.90;;;;;;4829411;29;20061;-85
2023/08/20 06:54:18;;;;;;;4.67;1.37;;;26.70;99.90;;;;;;4823069;29;20089;-82
2023/08/20 06:56:44;;;;;;;4.90;1.50;;;27.50;99.90;;;;;;4839825;29;21619;-87
2023/08/20 06:59:10;;;;;;;4.03;1.30;;;28.20;99.90;;;;;;4827008;29;20585;-83
2023/08/20 07:01:36;;;;;;;3.05;1.50;;;28.80;99.90;;;;;;4831446;29;20042;-83
2023/08/20 07:04:02;;;;;;;4.15;1.38;;;29.30;99.90;;;;;;4826533;29;20046;-87
2023/08/20 07:06:28;;;;;;;4.22;1.40;;;29.60;99.90;;;;;;4811723;29;20509;-84
2023/08/20 07:08:53;;;;;;;5.30;1.40;;;29.90;99.90;;;;;;4814447;29;20052;-86
2023/08/20 07:11:19;;;;;;;3.60;1.60;;;30.30;99.90;;;;;;4831368;29;20052;-87
2023/08/20 07:13:45;;;;;;;6.37;1.40;;;30.60;99.90;;;;;;4828725;29;20132;-85
2023/08/20 07:16:11;;;;;;;4.90;1.27;;;30.70;99.90;;;;;;4845655;29;20530;-87
2023/08/20 07:18:36;;;;;;;4.47;1.60;;;31.00;99.90;;;;;;4831352;29;20566;-85
2023/08/20 07:21:02;;;;;;;3.63;1.20;;;31.20;99.90;;;;;;4799697;29;20045;-89
2023/08/20 07:23:28;;;;;;;4.00;1.10;;;31.40;99.90;;;;;;4827984;29;20482;-85
2023/08/20 07:26:09;;;;;;;6.68;1.38;;;31.50;99.90;;;;;;4814875;29;20394;-86
2023/08/20 07:31:20;;;;;;;4.30;1.42;;;31.80;99.90;;;;;;4844992;29;20045;-86
2023/08/20 07:33:50;;;;;;;3.25;1.30;;;31.90;97.10;;;;;;4814121;29;20121;-86
2023/08/20 07:36:17;;;;;;;3.67;1.20;;;31.90;94.70;;;;;;4820515;29;20140;-84
2023/08/20 07:38:43;;;;;;;4.38;1.30;;;31.80;93.40;;;;;;4845347;29;20037;-85
2023/08/20 07:41:13;;;;;;;4.90;1.50;;;31.70;92.50;;;;;;4853071;29;20059;-85
2023/08/20 07:43:39;;;;;;;6.07;1.42;;;31.70;91.10;;;;;;4841436;29;20037;-86
2023/08/20 07:46:07;;;;;;;5.28;1.30;;;31.80;90.50;;;;;;4827556;29;20126;-86
2023/08/20 07:48:32;;;;;;;4.55;1.30;;;31.70;90.10;;;;;;4847168;29;20037;-85
2023/08/20 07:50:58;;;;;;;3.83;1.30;;;31.70;90.00;;;;;;4835567;29;20053;-86
2023/08/20 07:53:24;;;;;;;6.65;1.63;;;31.80;89.20;;;;;;4824394;29;20041;-84
2023/08/20 07:55:49;;;;;;;5.38;1.70;;;31.70;88.40;;;;;;4851918;29;20102;-86
2023/08/20 07:58:15;;;;;;;4.00;1.17;;;31.70;86.90;;;;;;4798882;29;20057;-86
2023/08/20 08:00:41;;;;;;;4.88;1.30;;;31.70;86.20;;;;;;4814852;29;20077;-86
2023/08/20 08:03:07;;;;;;;4.20;0.90;;;31.60;86.30;;;;;;4826649;29;20052;-85
2023/08/20 08:05:33;;;;;;;5.47;1.45;;;31.50;87.00;;;;;;4810060;29;20045;-87
2023/08/20 08:07:58;;;;;;;3.75;1.30;;;31.50;86.60;;;;;;4810345;29;20076;-84
2023/08/20 08:10:24;;;;;;;4.47;1.35;;;31.40;86.50;;;;;;4844055;29;20512;-85
2023/08/20 08:12:50;;;;;;;5.30;1.60;;;31.30;86.40;;;;;;4827781;29;20125;-84
2023/08/20 08:15:16;;;;;;;5.00;1.10;;;31.30;86.40;;;;;;4823903;29;20467;-82
2023/08/20 08:17:41;;;;;;;5.43;1.30;;;31.40;87.60;;;;;;4794501;29;20406;-83
2023/08/20 08:20:07;;;;;;;3.15;1.00;;;31.40;88.10;;;;;;4796589;29;20074;-84
2023/08/20 08:22:33;;;;;;;5.00;1.40;;;31.70;87.80;;;;;;4838741;29;20413;-83
2023/08/20 08:24:59;;;;;;;3.47;1.13;;;31.80;86.20;;;;;;4804089;29;20549;-84
2023/08/20 08:27:25;;;;;;;3.10;1.00;;;31.90;85.60;;;;;;4804579;29;20046;-84
2023/08/20 08:29:50;;;;;;;4.90;1.13;;;32.00;85.20;;;;;;4800203;29;20422;-82
2023/08/20 08:32:16;;;;;;;3.55;1.10;;;32.10;83.50;;;;;;4842253;29;20512;-84
2023/08/20 08:34:42;;;;;;;3.03;1.02;;;32.10;82.70;;;;;;4828093;29;20051;-86
2023/08/20 08:37:08;;;;;;;3.97;0.90;;;32.10;83.00;;;;;;4801126;29;20164;-84
2023/08/20 08:39:33;;;;;;;4.53;1.00;;;32.00;82.90;;;;;;4852013;29;20041;-82
2023/08/20 08:42:04;;;;;;;4.97;1.05;;;32.00;82.80;;;;;;4843870;29;20109;-84
2023/08/20 08:44:34;;;;;;;4.07;1.40;;;31.90;82.70;;;;;;4835694;29;20048;-82
2023/08/20 08:47:04;;;;;;;5.47;1.15;;;31.80;82.40;;;;;;4828914;29;20116;-84
2023/08/20 08:49:36;;;;;;;4.43;1.10;;;31.80;83.60;;;;;;4825139;29;20550;-85
2023/08/20 08:52:04;;;;;;;4.68;1.08;;;31.60;82.90;;;;;;4805036;29;20038;-84
2023/08/20 08:54:32;;;;;;;2.35;0.82;;;31.50;84.80;;;;;;4833144;29;20687;-84
2023/08/20 08:56:58;;;;;;;2.53;0.80;;;31.10;85.10;;;;;;4842986;29;20057;-82
2023/08/20 08:59:23;;;;;;;2.45;0.70;;;30.90;87.00;;;;;;4801521;29;20128;-83
2023/08/20 09:01:49;;;;;;;3.90;1.08;;;30.70;87.90;;;;;;4817164;29;20037;-83
2023/08/20 09:04:15;;;;;;;3.40;1.10;;;30.50;90.10;;;;;;4855792;29;20393;-85
2023/08/20 09:06:48;;;;;;;3.35;0.85;;;30.10;91.80;;;;;;4814888;29;20050;-86
2023/08/20 09:09:14;;;;;;;3.45;0.90;;;29.60;93.30;;;;;;4813010;29;20059;-85
2023/08/20 09:11:40;;;;;;;3.55;0.93;;;29.10;97.20;;;;;;4812293;29;20851;-84
2023/08/20 09:14:06;;;;;;;5.85;0.90;;;28.50;99.90;;;;;;4822300;29;20045;-85
2023/08/20 09:16:32;;;;;;;4.60;1.00;;;28.10;99.90;;;;;;4810517;29;20042;-85
2023/08/20 09:19:03;;;;;;;3.00;0.70;;;27.60;99.90;;;;;;4819290;29;20106;-83
2023/08/20 09:21:29;;;;;;;2.22;0.77;;;27.30;99.90;;;;;;4829717;29;20481;-84
2023/08/20 09:23:56;;;;;;;;;;;27.10;99.90;;;;;;4798299;29;20525;-85
2023/08/20 09:26:22;;;;;;;2.22;0.75;;;26.80;99.90;;;;;;4845078;29;19924;-85
2023/08/20 09:28:48;;;;;;;3.53;0.80;;;26.70;99.90;;;;;;4832711;29;20052;-83
2023/08/20 09:31:15;;;;;;;2.70;0.85;;;26.70;99.90;;;;;;4809708;29;20046;-85
2023/08/20 09:33:54;;;;;;;4.28;0.80;;;26.60;99.90;;;;;;4822273;29;20124;-85
2023/08/20 09:36:30;;;;;;;2.42;0.85;;;26.60;99.90;;;;;;4820322;29;20049;-85
2023/08/20 09:38:56;;;;;;;3.67;0.88;;;26.60;99.90;;;;;;4823030;29;20117;-85
2023/08/20 09:41:23;;;;;;;3.17;0.87;;;26.60;99.90;;;;;;4815008;29;20042;-84
2023/08/20 09:43:51;;;;;;;2.53;0.77;;;26.50;99.90;;;;;;4824492;29;20187;-83
2023/08/20 09:46:20;;;;;;;3.33;0.93;;;26.50;99.90;;;;;;4835167;29;20399;-86
2023/08/20 09:48:51;;;;;;;3.78;0.93;;;26.50;99.90;;;;;;4831118;29;20041;-84
2023/08/20 09:51:24;;;;;;;1.98;0.80;;;26.50;99.90;;;;;;4833113;29;20096;-82
2023/08/20 09:54:25;;;;;;;2.53;0.88;;;26.50;99.90;;;;;;4845463;29;20045;-84
2023/08/20 09:56:57;;;;;;;4.18;1.08;;;26.30;99.90;;;;;;4807816;29;20054;-83
2023/08/20 09:59:24;;;;;;;3.75;0.70;;;26.20;99.90;;;;;;4835920;29;20045;-83
2023/08/20 10:01:51;;;;;;;5.22;0.88;;;26.20;99.90;;;;;;4840402;29;20498;-83
2023/08/20 10:04:18;;;;;;;;;;;26.20;99.90;;;;;;4828144;29;20050;-83
2023/08/20 10:06:44;;;;;;;2.85;0.90;;;26.20;99.90;;;;;;4813238;29;19927;-84
2023/08/20 10:09:10;;;;;;;3.17;1.03;;;26.20;99.90;;;;;;4798495;29;20053;-86
2023/08/20 10:11:37;;;;;;;3.60;0.87;;;26.20;99.90;;;;;;4800479;29;20057;-85
2023/08/20 10:14:03;;;;;;;4.15;1.10;;;26.40;99.90;;;;;;4804670;29;20138;-84
2023/08/20 10:16:29;;;;;;;3.78;0.90;;;26.50;99.90;;;;;;4817074;29;20421;-83
2023/08/20 10:18:58;;;;;;;3.67;0.93;;;26.60;99.90;;;;;;4801575;29;20045;-83
2023/08/20 10:21:25;;;;;;;3.42;0.85;;;26.60;99.90;;;;;;4832866;29;20050;-84
2023/08/20 10:23:50;;;;;;;3.42;0.77;;;26.60;99.90;;;;;;4829367;29;20113;-83
2023/08/20 10:26:21;;;;;;;3.57;0.70;;;26.50;99.90;;;;;;4844288;29;20041;-82
2023/08/20 10:28:47;;;;;;;2.42;0.60;;;26.40;99.90;;;;;;4829535;29;20045;-83
2023/08/20 10:31:16;;;;;;;2.95;0.68;;;26.30;99.90;;;;;;4831363;29;20057;-84
2023/08/20 10:33:47;;;;;;;2.78;0.57;;;26.30;99.90;;;;;;4829399;29;20080;-82
2023/08/20 10:36:28;;;;;;;5.07;1.08;;;26.40;99.90;;;;;;4850014;29;20049;-83
2023/08/20 10:38:57;;;;;;;3.47;0.70;;;26.40;99.90;;;;;;4824358;29;20049;-83
2023/08/20 10:41:28;;;;;;;2.33;0.50;;;26.50;99.90;;;;;;4827271;29;20394;-84
2023/08/20 10:44:00;;;;;;;2.67;0.75;;;26.60;99.90;;;;;;4830378;29;20045;-82
2023/08/20 10:46:30;;;;;;;4.30;0.95;;;26.70;99.90;;;;;;4827343;29;20105;-84
2023/08/20 10:49:01;;;;;;;2.08;0.70;;;26.70;99.90;;;;;;4842068;29;20102;-89
2023/08/20 10:51:33;;;;;;;1.95;0.60;;;26.70;99.90;;;;;;4811259;29;20045;-84
2023/08/20 10:54:03;;;;;;;6.07;1.13;;;26.40;99.90;;;;;;4820555;29;20055;-83
2023/08/20 10:56:55;;;;;;;3.45;0.80;;;26.30;99.90;;;;;;4832170;29;20048;-83
2023/08/20 10:59:27;;;;;;;4.13;1.15;;;26.00;99.90;;;;;;4832362;29;20141;-83
2023/08/20 11:01:58;;;;;;;5.50;1.08;;;25.70;99.90;;;;;;4839515;29;20045;-83
2023/08/20 11:04:32;;;;;;;3.38;0.85;;;25.70;99.90;;;;;;4837972;29;20080;-85
2023/08/20 11:06:58;;;;;;;4.40;0.70;;;25.80;99.90;;;;;;4829968;29;20486;-83
2023/08/20 11:09:28;;;;;;;4.45;1.08;;;25.90;99.90;;;;;;4846615;29;20037;-85
2023/08/20 11:11:54;;;;;;;3.45;1.08;;;26.00;99.90;;;;;;4830811;29;20124;-83
2023/08/20 11:14:21;;;;;;;4.43;0.73;;;26.00;99.90;;;;;;4816179;29;20088;-85
2023/08/20 11:16:48;;;;;;;2.70;0.70;;;26.00;99.90;;;;;;4827953;29;20056;-86
2023/08/20 11:19:18;;;;;;;2.50;0.50;;;25.90;99.90;;;;;;4840849;29;20508;-86
2023/08/20 11:21:44;;;;;;;3.33;0.70;;;25.90;99.90;;;;;;4825649;29;20108;-83
2023/08/20 11:24:10;;;;;;;4.50;0.95;;;25.90;99.90;;;;;;4827001;29;20081;-82
2023/08/20 11:26:39;;;;;;;2.65;0.60;;;25.90;99.90;;;;;;4801714;29;20038;-84
2023/08/20 11:29:13;;;;;;;3.00;0.63;;;25.60;99.90;;;;;;4844339;29;20062;-83
2023/08/20 11:31:40;;;;;;;3.55;0.70;;;25.70;99.90;;;;;;4829659;29;20113;-83
2023/08/20 11:34:07;;;;;;;2.03;0.57;;;25.80;99.90;;;;;;4829733;29;20042;-84
2023/08/20 11:36:35;;;;;;;4.35;0.75;;;25.90;99.90;;;;;;4830587;29;20695;-87
2023/08/20 11:39:00;;;;;;;2.05;0.65;;;26.00;99.90;;;;;;4839554;29;20141;-83
2023/08/20 11:41:26;;;;;;;2.77;0.57;;;26.00;99.90;;;;;;4837988;29;20506;-82
2023/08/20 11:43:53;;;;;;;2.70;0.70;;;25.80;99.90;;;;;;4839196;29;20045;-84
2023/08/20 11:46:20;;;;;;;1.95;0.52;;;25.60;99.90;;;;;;4852837;29;20476;-84
2023/08/20 11:49:06;;;;;;;2.63;0.52;;;25.60;99.90;;;;;;4829894;29;20049;-83
2023/08/20 11:51:43;;;;;;;2.33;0.40;;;25.70;99.90;;;;;;4834545;29;20049;-84
2023/08/20 11:54:13;;;;;;;;;;;25.80;99.90;;;;;;4830606;29;20080;-84
2023/08/20 11:56:49;;;;;;;1.75;0.50;;;25.80;99.90;;;;;;4832312;29;19946;-84
2023/08/20 11:59:17;;;;;;;3.87;0.80;;;25.80;99.90;;;;;;4869032;29;20048;-84
2023/08/20 12:01:42;;;;;;;2.70;0.82;;;25.80;99.90;;;;;;4825739;29;20042;-83
2023/08/20 12:04:10;;;;;;;3.07;0.53;;;25.90;99.90;;;;;;4813746;29;20051;-84
2023/08/20 12:06:37;;;;;;;3.83;0.70;;;25.90;99.90;;;;;;4847225;29;20117;-82
2023/08/20 12:09:21;;;;;;;4.55;0.70;;;25.90;99.90;;;;;;4828799;29;20041;-82
2023/08/20 12:11:54;;;;;;;3.03;0.70;;;25.70;99.90;;;;;;4859666;29;20049;-84
2023/08/20 12:14:20;;;;;;;2.67;0.70;;;25.50;99.90;;;;;;4843686;29;20049;-85
2023/08/20 12:16:46;;;;;;;2.57;0.60;;;25.40;99.90;;;;;;4829899;29;20067;-84
2023/08/20 12:19:16;;;;;;;1.83;0.60;;;25.40;99.90;;;;;;4813595;29;20548;-84
2023/08/20 12:21:43;;;;;;;2.35;0.73;;;25.30;99.90;;;;;;4828899;29;20057;-83
2023/08/20 12:24:09;;;;;;;2.03;0.60;;;25.30;99.90;;;;;;4812189;29;20045;-86
2023/08/20 12:26:36;;;;;;;2.47;0.57;;;25.20;99.90;;;;;;4844149;29;20398;-83
2023/08/20 12:29:02;;;;;;;3.47;0.80;;;25.10;99.90;;;;;;4841679;29;20085;-83
2023/08/20 12:31:28;;;;;;;2.03;0.60;;;25.10;99.90;;;;;;4835745;29;20056;-83
2023/08/20 12:33:53;;;;;;;3.00;0.73;;;25.00;99.90;;;;;;4813375;29;20128;-82
2023/08/20 12:36:19;;;;;;;2.50;0.63;;;25.00;99.90;;;;;;4816631;29;20049;-83
2023/08/20 12:38:45;;;;;;;3.17;0.57;;;25.00;99.90;;;;;;4843137;29;20060;-83
2023/08/20 12:41:11;;;;;;;3.20;0.50;;;25.00;99.90;;;;;;4827215;29;20394;-82
2023/08/20 12:43:36;;;;;;;2.77;0.40;;;25.10;99.90;;;;;;4812939;29;20037;-84
2023/08/20 12:46:03;;;;;;;1.53;0.50;;;25.00;99.90;;;;;;4827795;29;20042;-83
2023/08/20 12:48:29;;;;;;;1.75;0.60;;;25.00;99.90;;;;;;4812893;29;20044;-85
2023/08/20 12:50:56;;;;;;;3.10;0.75;;;25.10;99.90;;;;;;4828412;29;20045;-83